createdAt,value
2019-02-26T00:01:05.182Z,5.80
2019-02-26T00:03:35.426Z,5.80
2019-02-26T00:06:05.296Z,5.80
2019-02-26T00:08:34.777Z,5.80
2019-02-26T00:11:06.104Z,5.80
2019-02-26T00:13:36.568Z,5.80
2019-02-26T00:16:08.034Z,5.80
2019-02-26T00:18:37.430Z,5.80
2019-02-26T00:21:06.934Z,5.80
2019-02-26T00:23:36.404Z,5.80
2019-02-26T00:26:05.911Z,5.80
2019-02-26T00:28:36.519Z,5.80
2019-02-26T00:31:06.586Z,5.80
2019-02-26T00:33:36.061Z,5.70
2019-02-26T00:36:07.138Z,5.70
2019-02-26T00:38:37.744Z,5.70
2019-02-26T00:41:07.864Z,5.70
2019-02-26T00:43:37.460Z,5.70
2019-02-26T00:46:08.582Z,5.70
2019-02-26T00:48:40.264Z,5.70
2019-02-26T00:51:09.168Z,5.70
2019-02-26T00:53:38.625Z,5.70
2019-02-26T00:56:10.267Z,5.70
2019-02-26T00:58:41.086Z,5.70
2019-02-26T01:01:12.422Z,5.70
2019-02-26T01:03:43.103Z,5.70
2019-02-26T01:06:12.801Z,5.70
2019-02-26T01:08:44.337Z,5.60
2019-02-26T01:11:13.428Z,5.60
2019-02-26T01:13:42.897Z,5.60
2019-02-26T01:16:12.405Z,5.60
2019-02-26T01:18:42.171Z,5.60
2019-02-26T01:21:12.977Z,5.60
2019-02-26T01:23:43.405Z,5.60
2019-02-26T01:26:12.869Z,5.60
2019-02-26T01:28:46.129Z,5.60
2019-02-26T01:31:13.509Z,5.70
2019-02-26T01:33:42.958Z,5.70
2019-02-26T01:36:14.002Z,5.60
2019-02-26T01:38:44.380Z,5.70
2019-02-26T01:41:15.541Z,5.70
2019-02-26T01:43:45.816Z,5.60
2019-02-26T01:46:16.965Z,5.60
2019-02-26T01:48:46.424Z,5.70
2019-02-26T01:51:17.178Z,5.60
2019-02-26T01:53:49.075Z,5.60
2019-02-26T01:56:19.945Z,5.60
2019-02-26T01:58:56.421Z,5.60
2019-02-26T02:01:22.005Z,5.60
2019-02-26T02:03:53.857Z,5.60
2019-02-26T02:06:23.584Z,5.60
2019-02-26T02:08:55.522Z,5.60
2019-02-26T02:11:28.409Z,5.60
2019-02-26T02:13:55.394Z,5.60
2019-02-26T02:16:26.641Z,5.60
2019-02-26T02:18:58.224Z,5.60
2019-02-26T02:21:30.419Z,5.60
2019-02-26T02:23:58.313Z,5.60
2019-02-26T02:26:27.768Z,5.60
2019-02-26T02:28:57.245Z,5.60
2019-02-26T02:31:30.275Z,5.60
2019-02-26T02:33:57.913Z,5.60
2019-02-26T02:36:27.385Z,5.60
2019-02-26T02:38:56.913Z,5.60
2019-02-26T02:41:26.393Z,5.60
2019-02-26T02:43:55.874Z,5.60
2019-02-26T02:46:25.353Z,5.60
2019-02-26T02:48:54.821Z,5.60
2019-02-26T02:51:25.705Z,5.60
2019-02-26T02:53:57.314Z,5.50
2019-02-26T02:56:26.568Z,5.50
2019-02-26T02:58:56.086Z,5.50
2019-02-26T03:01:28.668Z,5.50
2019-02-26T03:04:00.537Z,5.50
2019-02-26T03:06:30.180Z,5.50
2019-02-26T03:08:59.025Z,5.50
2019-02-26T03:11:28.501Z,5.50
2019-02-26T03:13:58.105Z,5.50
2019-02-26T03:16:27.569Z,5.50
2019-02-26T03:18:57.058Z,5.50
2019-02-26T03:21:27.763Z,5.50
2019-02-26T03:23:58.351Z,5.50
2019-02-26T03:26:28.801Z,5.50
2019-02-26T03:28:58.275Z,5.50
2019-02-26T03:31:30.996Z,5.50
2019-02-26T03:34:04.195Z,5.50
2019-02-26T03:36:31.596Z,5.50
2019-02-26T03:39:02.857Z,5.50
2019-02-26T03:41:32.362Z,5.50
2019-02-26T03:44:03.330Z,5.50
2019-02-26T03:46:32.954Z,5.50
2019-02-26T03:49:03.606Z,5.50
2019-02-26T03:51:33.452Z,5.40
2019-02-26T03:54:02.898Z,5.40
2019-02-26T03:56:32.402Z,5.50
2019-02-26T03:59:05.767Z,5.40
2019-02-26T04:01:33.088Z,5.40
2019-02-26T04:04:05.478Z,5.40
2019-02-26T04:06:36.620Z,5.40
2019-02-26T04:09:08.590Z,5.40
2019-02-26T04:11:39.630Z,5.40
2019-02-26T04:14:12.601Z,5.40
2019-02-26T04:16:43.445Z,5.40
2019-02-26T04:19:12.103Z,5.30
2019-02-26T04:22:18.942Z,5.40
2019-02-26T04:24:50.105Z,5.30
2019-02-26T04:27:48.196Z,5.40
2019-02-26T04:31:03.277Z,5.30
2019-02-26T04:33:55.948Z,5.30
2019-02-26T04:36:48.868Z,5.30
2019-02-26T04:39:48.059Z,5.30
2019-02-26T04:43:16.752Z,5.30
2019-02-26T04:46:31.038Z,5.30
2019-02-26T04:48:59.400Z,5.30
2019-02-26T04:51:28.859Z,5.30
2019-02-26T04:53:59.519Z,5.30
2019-02-26T04:56:33.455Z,5.30
2019-02-26T04:59:03.577Z,5.30
2019-02-26T05:01:33.985Z,5.30
2019-02-26T05:04:03.239Z,5.30
2019-02-26T05:06:32.753Z,5.30
2019-02-26T05:09:02.876Z,5.20
2019-02-26T05:11:37.255Z,5.30
2019-02-26T05:14:06.706Z,5.30
2019-02-26T05:16:37.839Z,5.20
2019-02-26T05:19:06.604Z,5.20
2019-02-26T05:21:37.796Z,5.20
2019-02-26T05:24:07.191Z,5.20
2019-02-26T05:26:36.627Z,5.20
2019-02-26T05:29:12.190Z,5.20
2019-02-26T05:31:43.164Z,5.20
2019-02-26T05:34:15.037Z,5.20
2019-02-26T05:36:46.081Z,5.20
2019-02-26T05:39:18.115Z,5.10
2019-02-26T05:41:46.247Z,5.10
2019-02-26T05:44:15.728Z,5.10
2019-02-26T05:46:47.310Z,5.10
2019-02-26T05:49:18.800Z,5.10
2019-02-26T05:51:47.404Z,5.10
2019-02-26T05:54:18.554Z,5.10
2019-02-26T05:56:49.843Z,5.10
2019-02-26T05:59:21.790Z,5.10
2019-02-26T06:01:54.818Z,5.10
2019-02-26T06:04:21.341Z,5.10
2019-02-26T06:06:55.564Z,5.10
2019-02-26T06:09:25.507Z,5.00
2019-02-26T06:11:53.903Z,5.00
2019-02-26T06:14:25.491Z,5.00
2019-02-26T06:16:55.707Z,5.00
2019-02-26T06:19:46.845Z,5.00
2019-02-26T06:22:18.177Z,5.00
2019-02-26T06:24:47.363Z,4.90
2019-02-26T06:27:19.640Z,4.90
2019-02-26T06:29:47.953Z,4.90
2019-02-26T06:32:17.496Z,4.90
2019-02-26T06:34:47.051Z,4.90
2019-02-26T06:37:23.238Z,4.90
2019-02-26T06:39:54.832Z,4.90
2019-02-26T06:42:23.470Z,4.90
2019-02-26T06:44:53.075Z,4.90
2019-02-26T06:47:24.122Z,4.90
2019-02-26T06:49:53.708Z,4.90
2019-02-26T06:52:23.228Z,5.00
2019-02-26T06:54:57.307Z,5.00
2019-02-26T06:57:23.865Z,5.00
2019-02-26T06:59:55.563Z,5.00
2019-02-26T07:02:28.246Z,5.00
2019-02-26T07:04:55.532Z,5.00
2019-02-26T07:07:25.944Z,5.00
2019-02-26T07:09:57.517Z,5.00
2019-02-26T07:12:26.586Z,5.00
2019-02-26T07:14:57.995Z,5.00
2019-02-26T07:17:31.899Z,5.10
2019-02-26T07:20:00.169Z,5.10
2019-02-26T07:22:29.414Z,5.20
2019-02-26T07:24:58.895Z,5.20
2019-02-26T07:27:28.824Z,5.20
2019-02-26T07:29:59.480Z,5.20
2019-02-26T07:32:28.975Z,5.30
2019-02-26T07:34:58.485Z,5.40
2019-02-26T07:37:28.606Z,5.40
2019-02-26T07:39:59.115Z,5.40
2019-02-26T07:42:32.786Z,5.50
2019-02-26T07:44:59.647Z,5.50
2019-02-26T07:47:31.236Z,5.50
2019-02-26T07:50:01.657Z,5.60
2019-02-26T07:52:33.033Z,5.60
2019-02-26T07:55:03.824Z,5.60
2019-02-26T07:57:33.791Z,5.60
2019-02-26T08:00:03.227Z,5.70
2019-02-26T08:02:34.855Z,5.70
2019-02-26T08:05:03.837Z,5.70
2019-02-26T08:07:33.331Z,5.80
2019-02-26T08:10:02.872Z,5.70
2019-02-26T08:12:35.030Z,5.80
2019-02-26T08:15:05.685Z,5.80
2019-02-26T08:17:34.603Z,5.90
2019-02-26T08:20:07.458Z,5.80
2019-02-26T08:22:36.281Z,5.90
2019-02-26T08:25:06.207Z,5.90
2019-02-26T08:27:37.735Z,5.90
2019-02-26T08:30:17.739Z,5.90
2019-02-26T08:32:51.077Z,6.00
2019-02-26T08:35:18.815Z,6.00
2019-02-26T08:37:48.559Z,6.10
2019-02-26T08:40:18.035Z,6.10
2019-02-26T08:42:47.511Z,6.10
2019-02-26T08:45:22.466Z,6.20
2019-02-26T08:47:49.488Z,6.30
2019-02-26T08:50:18.929Z,6.30
2019-02-26T08:52:52.329Z,6.40
2019-02-26T08:55:22.257Z,6.40
2019-02-26T08:57:53.412Z,6.40
2019-02-26T09:00:21.899Z,6.50
2019-02-26T09:02:54.040Z,6.60
2019-02-26T09:05:23.988Z,6.60
2019-02-26T09:07:53.581Z,6.70
2019-02-26T09:10:23.428Z,6.80
2019-02-26T09:12:53.101Z,6.80
2019-02-26T09:15:22.618Z,7.00
2019-02-26T09:17:52.087Z,7.00
2019-02-26T09:20:21.519Z,7.10
2019-02-26T09:22:53.700Z,7.10
2019-02-26T09:25:25.569Z,7.20
2019-02-26T09:27:53.256Z,7.20
2019-02-26T09:30:22.737Z,7.30
2019-02-26T09:32:52.600Z,7.40
2019-02-26T09:35:28.368Z,7.40
2019-02-26T09:38:00.114Z,7.50
2019-02-26T09:40:29.016Z,7.60
2019-02-26T09:43:00.077Z,7.70
2019-02-26T09:45:30.230Z,7.70
2019-02-26T09:48:01.229Z,7.80
2019-02-26T09:50:31.119Z,7.90
2019-02-26T09:53:02.815Z,7.90
2019-02-26T09:55:32.308Z,8.00
2019-02-26T09:58:02.550Z,8.10
2019-02-26T10:00:32.231Z,8.10
2019-02-26T10:03:03.061Z,8.20
2019-02-26T10:05:32.818Z,8.30
2019-02-26T10:08:05.176Z,8.30
2019-02-26T10:10:34.624Z,8.50
2019-02-26T10:13:04.877Z,8.60
2019-02-26T10:15:35.499Z,8.70
2019-02-26T10:18:07.219Z,8.80
2019-02-26T10:20:36.811Z,8.90
2019-02-26T10:23:06.508Z,9.00
2019-02-26T10:25:38.676Z,9.00
2019-02-26T10:28:11.025Z,9.10
2019-02-26T10:30:39.453Z,9.20
2019-02-26T10:33:09.640Z,9.20
2019-02-26T10:35:42.141Z,9.20
2019-02-26T10:38:11.564Z,9.20
2019-02-26T10:40:53.506Z,9.10
2019-02-26T10:43:12.474Z,9.10
2019-02-26T10:45:44.672Z,9.10
2019-02-26T10:48:13.743Z,9.00
2019-02-26T10:50:48.283Z,9.00
2019-02-26T10:53:18.944Z,8.90
2019-02-26T10:55:46.434Z,8.90
2019-02-26T10:58:15.918Z,8.90
2019-02-26T11:00:49.974Z,8.80
2019-02-26T11:03:20.220Z,8.70
2019-02-26T11:05:52.146Z,8.70
2019-02-26T11:08:23.653Z,8.60
2019-02-26T11:10:52.908Z,8.50
2019-02-26T11:13:24.933Z,8.50
2019-02-26T11:15:54.372Z,8.50
2019-02-26T11:18:24.661Z,8.60
2019-02-26T11:20:56.007Z,8.50
2019-02-26T11:23:30.803Z,8.40
2019-02-26T11:25:56.381Z,8.30
2019-02-26T11:28:29.793Z,8.30
2019-02-26T11:30:56.964Z,8.30
2019-02-26T11:33:26.451Z,8.30
2019-02-26T11:35:55.941Z,8.30
2019-02-26T11:38:25.442Z,8.30
2019-02-26T11:40:54.896Z,8.30
2019-02-26T11:43:27.073Z,8.40
2019-02-26T11:45:56.643Z,8.30
2019-02-26T11:48:28.953Z,8.30
2019-02-26T11:51:00.789Z,8.20
2019-02-26T11:53:29.842Z,8.20
2019-02-26T11:56:01.890Z,8.20
2019-02-26T11:58:30.860Z,8.10
2019-02-26T12:01:01.612Z,8.20
2019-02-26T12:03:33.365Z,8.20
2019-02-26T12:06:02.274Z,8.20
2019-02-26T12:08:31.799Z,8.30
2019-02-26T12:11:03.849Z,8.30
2019-02-26T12:13:33.548Z,8.40
2019-02-26T12:16:03.038Z,8.40
2019-02-26T12:18:34.294Z,8.50
2019-02-26T12:21:05.952Z,8.60
2019-02-26T12:23:36.742Z,8.60
2019-02-26T12:26:05.879Z,8.60
2019-02-26T12:28:37.642Z,8.60
2019-02-26T12:31:08.038Z,8.60
2019-02-26T12:33:37.756Z,8.70
2019-02-26T12:36:08.010Z,8.80
2019-02-26T12:38:38.300Z,8.80
2019-02-26T12:41:09.068Z,8.80
2019-02-26T12:43:41.275Z,8.70
2019-02-26T12:46:10.036Z,8.60
2019-02-26T12:48:41.828Z,8.60
2019-02-26T12:51:10.692Z,8.60
2019-02-26T12:53:49.030Z,8.50
2019-02-26T12:56:16.835Z,8.50
2019-02-26T12:58:48.337Z,8.50
2019-02-26T13:01:17.415Z,8.50
2019-02-26T13:03:51.179Z,8.50
2019-02-26T13:06:18.667Z,8.50
2019-02-26T13:08:50.675Z,8.50
2019-02-26T13:11:23.346Z,8.50
2019-02-26T13:13:53.366Z,8.60
2019-02-26T13:16:22.632Z,8.60
2019-02-26T13:18:56.598Z,8.70
2019-02-26T13:21:23.270Z,8.80
2019-02-26T13:23:55.788Z,8.80
2019-02-26T13:26:23.823Z,8.80
2019-02-26T13:28:56.081Z,8.90
2019-02-26T13:31:24.431Z,8.90
2019-02-26T13:33:53.925Z,8.90
2019-02-26T13:36:23.376Z,9.00
2019-02-26T13:38:52.864Z,9.10
2019-02-26T13:41:29.499Z,9.20
2019-02-26T13:43:53.503Z,9.30
2019-02-26T13:46:22.968Z,9.30
2019-02-26T13:48:52.467Z,9.30
2019-02-26T13:51:21.914Z,9.30
2019-02-26T13:53:51.366Z,9.20
2019-02-26T13:56:20.908Z,9.10
2019-02-26T13:58:50.456Z,9.00
2019-02-26T14:01:19.912Z,9.00
2019-02-26T14:03:49.398Z,8.90
2019-02-26T14:06:18.907Z,8.80
2019-02-26T14:08:48.350Z,8.80
2019-02-26T14:11:17.801Z,8.80
2019-02-26T14:13:47.283Z,8.80
2019-02-26T14:16:16.748Z,8.80
2019-02-26T14:18:48.167Z,8.70
2019-02-26T14:21:17.361Z,8.70
2019-02-26T14:23:46.793Z,8.80
2019-02-26T14:26:17.164Z,8.80
2019-02-26T14:28:46.863Z,8.80
2019-02-26T14:31:16.315Z,8.80
2019-02-26T14:33:45.821Z,8.80
2019-02-26T14:36:15.305Z,8.80
2019-02-26T14:38:44.753Z,8.80
2019-02-26T14:41:14.212Z,8.80
2019-02-26T14:43:43.776Z,8.80
2019-02-26T14:46:13.225Z,8.90
2019-02-26T14:48:42.668Z,8.90
2019-02-26T14:51:12.174Z,8.90
2019-02-26T14:53:41.686Z,8.90
2019-02-26T14:56:11.241Z,8.90
2019-02-26T14:58:40.780Z,8.90
2019-02-26T15:01:10.220Z,8.90
2019-02-26T15:03:39.667Z,8.90
2019-02-26T15:06:09.311Z,8.90
2019-02-26T15:08:38.764Z,8.90
2019-02-26T15:11:08.221Z,9.00
2019-02-26T15:13:37.712Z,8.90
2019-02-26T15:16:07.237Z,8.90
2019-02-26T15:18:36.730Z,8.90
2019-02-26T15:21:06.258Z,8.80
2019-02-26T15:23:35.724Z,8.90
2019-02-26T15:26:05.193Z,8.90
2019-02-26T15:28:34.642Z,8.80
2019-02-26T15:31:04.108Z,8.80
2019-02-26T15:33:33.587Z,8.80
2019-02-26T15:36:03.087Z,8.80
2019-02-26T15:38:32.513Z,8.80
2019-02-26T15:41:02.008Z,8.70
2019-02-26T15:43:31.505Z,8.70
2019-02-26T15:46:00.934Z,8.60
2019-02-26T15:48:30.404Z,8.60
2019-02-26T15:50:59.899Z,8.50
2019-02-26T15:53:29.451Z,8.50
2019-02-26T15:55:59.948Z,8.40
2019-02-26T15:58:29.540Z,8.40
2019-02-26T16:00:59.099Z,8.30
2019-02-26T16:03:29.720Z,8.30
2019-02-26T16:05:59.830Z,8.20
2019-02-26T16:08:34.517Z,8.10
2019-02-26T16:11:00.427Z,8.10
2019-02-26T16:13:29.986Z,8.00
2019-02-26T16:15:59.734Z,7.90
2019-02-26T16:18:29.624Z,7.90
2019-02-26T16:20:59.580Z,7.80
2019-02-26T16:23:29.044Z,7.70
2019-02-26T16:25:58.532Z,7.60
2019-02-26T16:28:28.113Z,7.50
2019-02-26T16:30:59.412Z,7.40
2019-02-26T16:33:28.872Z,7.30
2019-02-26T16:35:58.446Z,7.30
2019-02-26T16:38:27.879Z,7.20
2019-02-26T16:40:57.324Z,7.10
2019-02-26T16:43:26.824Z,7.00
2019-02-26T16:45:56.259Z,7.00
2019-02-26T16:48:25.736Z,6.90
2019-02-26T16:50:55.196Z,6.80
2019-02-26T16:53:24.732Z,6.70
2019-02-26T16:55:54.675Z,6.60
2019-02-26T16:58:24.530Z,6.50
2019-02-26T17:00:54.003Z,6.50
2019-02-26T17:03:23.505Z,6.40
2019-02-26T17:05:52.951Z,6.30
2019-02-26T17:08:22.423Z,6.20
2019-02-26T17:10:51.877Z,6.20
2019-02-26T17:13:21.352Z,6.10
2019-02-26T17:15:51.311Z,6.00
2019-02-26T17:18:20.768Z,5.90
2019-02-26T17:20:50.322Z,5.90
2019-02-26T17:23:19.764Z,5.80
2019-02-26T17:25:49.297Z,5.80
2019-02-26T17:28:19.195Z,5.80
2019-02-26T17:30:48.626Z,5.70
2019-02-26T17:33:18.099Z,5.70
2019-02-26T17:35:47.584Z,5.60
2019-02-26T17:38:18.043Z,5.60
2019-02-26T17:40:48.225Z,5.60
2019-02-26T17:43:25.811Z,5.50
2019-02-26T17:45:55.255Z,5.50
2019-02-26T17:48:24.710Z,5.50
2019-02-26T17:50:54.383Z,5.50
2019-02-26T17:53:27.671Z,5.40
2019-02-26T17:55:54.924Z,5.40
2019-02-26T17:58:24.420Z,5.40
2019-02-26T18:00:55.939Z,5.40
2019-02-26T18:03:25.787Z,5.40
2019-02-26T18:05:55.376Z,5.30
2019-02-26T18:08:24.846Z,5.30
2019-02-26T18:10:54.361Z,5.30
2019-02-26T18:13:23.859Z,5.20
2019-02-26T18:15:56.131Z,5.20
2019-02-26T18:18:24.404Z,5.20
2019-02-26T18:20:53.973Z,5.20
2019-02-26T18:23:23.432Z,5.20
2019-02-26T18:25:52.903Z,5.10
2019-02-26T18:28:22.413Z,5.10
2019-02-26T18:30:51.865Z,5.10
2019-02-26T18:33:21.293Z,5.10
2019-02-26T18:35:50.780Z,5.10
2019-02-26T18:38:20.247Z,5.00
2019-02-26T18:40:49.714Z,5.00
2019-02-26T18:43:19.196Z,4.90
2019-02-26T18:45:48.650Z,4.90
2019-02-26T18:48:18.134Z,4.90
2019-02-26T18:50:47.844Z,4.90
2019-02-26T18:53:17.347Z,4.90
2019-02-26T18:55:46.923Z,4.80
2019-02-26T18:58:17.052Z,4.80
2019-02-26T19:00:46.522Z,4.80
2019-02-26T19:03:16.151Z,4.80
2019-02-26T19:05:45.632Z,4.80
2019-02-26T19:08:15.217Z,4.80
2019-02-26T19:10:44.671Z,4.80
2019-02-26T19:13:14.147Z,4.70
2019-02-26T19:15:47.531Z,4.70
2019-02-26T19:18:15.886Z,4.70
2019-02-26T19:20:48.883Z,4.70
2019-02-26T19:23:16.699Z,4.60
2019-02-26T19:25:46.142Z,4.60
2019-02-26T19:28:15.614Z,4.60
2019-02-26T19:30:45.075Z,4.60
2019-02-26T19:33:14.640Z,4.50
2019-02-26T19:35:44.081Z,4.50
2019-02-26T19:38:13.577Z,4.50
2019-02-26T19:40:43.456Z,4.50
2019-02-26T19:43:12.992Z,4.50
2019-02-26T19:45:44.765Z,4.50
2019-02-26T19:48:13.710Z,4.50
2019-02-26T19:50:47.131Z,4.50
2019-02-26T19:53:14.397Z,4.50
2019-02-26T19:55:44.039Z,4.50
2019-02-26T19:58:13.534Z,4.50
2019-02-26T20:00:43.129Z,4.50
2019-02-26T20:03:12.608Z,4.50
2019-02-26T20:05:46.310Z,4.50
2019-02-26T20:08:13.246Z,4.50
2019-02-26T20:10:42.710Z,4.50
2019-02-26T20:13:12.772Z,4.50
2019-02-26T20:15:42.319Z,4.50
2019-02-26T20:18:20.103Z,4.50
2019-02-26T20:20:45.689Z,4.50
2019-02-26T20:23:14.308Z,4.50
2019-02-26T20:25:43.775Z,4.50
2019-02-26T20:28:13.341Z,4.50
2019-02-26T20:30:42.791Z,4.50
2019-02-26T20:33:12.390Z,4.50
2019-02-26T20:35:45.148Z,4.50
2019-02-26T20:38:13.546Z,4.50
2019-02-26T20:40:42.993Z,4.50
2019-02-26T20:43:12.519Z,4.40
2019-02-26T20:45:41.959Z,4.40
2019-02-26T20:48:11.574Z,4.40
2019-02-26T20:50:41.019Z,4.40
2019-02-26T20:53:10.528Z,4.40
2019-02-26T20:55:39.978Z,4.40
2019-02-26T20:58:09.685Z,4.40
2019-02-26T21:00:42.531Z,4.50
2019-02-26T21:03:11.660Z,4.50
2019-02-26T21:05:41.802Z,4.50
2019-02-26T21:08:12.216Z,4.50
2019-02-26T21:10:41.669Z,4.60
2019-02-26T21:13:11.149Z,4.60
2019-02-26T21:15:40.590Z,4.60
2019-02-26T21:18:11.378Z,4.60
2019-02-26T21:20:41.175Z,4.70
2019-02-26T21:23:11.171Z,4.70
2019-02-26T21:25:43.885Z,4.70
2019-02-26T21:28:11.755Z,4.70
2019-02-26T21:30:41.211Z,4.80
2019-02-26T21:33:10.656Z,4.80
2019-02-26T21:35:40.140Z,4.80
2019-02-26T21:38:09.612Z,4.80
2019-02-26T21:40:39.069Z,4.80
2019-02-26T21:43:08.605Z,4.80
2019-02-26T21:45:38.045Z,4.90
2019-02-26T21:48:07.499Z,4.90
2019-02-26T21:50:37.009Z,4.90
2019-02-26T21:53:06.464Z,5.00
2019-02-26T21:55:43.919Z,5.00
2019-02-26T21:58:07.035Z,5.00
2019-02-26T22:00:36.734Z,5.10
2019-02-26T22:03:07.636Z,5.10
2019-02-26T22:05:37.830Z,5.10
2019-02-26T22:08:07.856Z,5.10
2019-02-26T22:10:37.336Z,5.20
2019-02-26T22:13:06.835Z,5.20
2019-02-26T22:15:36.313Z,5.20
2019-02-26T22:18:05.750Z,5.30
2019-02-26T22:20:36.491Z,5.30
2019-02-26T22:23:06.123Z,5.30
2019-02-26T22:25:35.558Z,5.30
2019-02-26T22:28:08.600Z,5.30
2019-02-26T22:30:36.595Z,5.40
2019-02-26T22:33:08.039Z,5.40
2019-02-26T22:35:37.178Z,5.40
2019-02-26T22:38:06.643Z,5.40
2019-02-26T22:40:41.591Z,5.30
2019-02-26T22:43:13.627Z,5.30
2019-02-26T22:45:42.177Z,5.30
2019-02-26T22:48:13.702Z,5.20
2019-02-26T22:50:42.836Z,5.20
2019-02-26T22:53:12.292Z,5.20
2019-02-26T22:55:41.776Z,5.10
2019-02-26T22:58:11.221Z,5.10
2019-02-26T23:01:09.456Z,5.10
2019-02-26T23:03:39.019Z,5.00
2019-02-26T23:06:09.457Z,5.00
2019-02-26T23:08:39.180Z,4.90
2019-02-26T23:11:09.049Z,4.90
2019-02-26T23:13:38.519Z,4.90
2019-02-26T23:16:08.005Z,4.80
2019-02-26T23:18:37.597Z,4.80
2019-02-26T23:21:07.136Z,4.80
2019-02-26T23:23:36.735Z,4.70
2019-02-26T23:26:08.686Z,4.70
2019-02-26T23:28:37.396Z,4.70
2019-02-26T23:31:07.911Z,4.70
2019-02-26T23:33:37.486Z,4.70
2019-02-26T23:36:06.980Z,4.70
2019-02-26T23:38:36.561Z,4.70
2019-02-26T23:41:06.445Z,4.70
2019-02-26T23:43:35.874Z,4.70
2019-02-26T23:46:06.235Z,4.60
2019-02-26T23:48:35.751Z,4.60
2019-02-26T23:51:05.224Z,4.70
2019-02-26T23:53:34.694Z,4.70
2019-02-26T23:56:04.136Z,4.60
2019-02-26T23:58:33.576Z,4.60
